Time;durP1;ratioP1;P1;durP2;ratioP2;P2;SDS_P1;SDS_P2;PMS_P1;PMS_P2;Temp;Humidity;BMP_temperature;BMP_pressure;BME280_temperature;BME280_humidity;BME280_pressure;Samples;Min_cycle;Max_cycle;Signal;HPM_P1;HPM_P2
2023/11/26 00:00:04;;;;;;;1.88;1.33;;;0.70;99.90;;;;;;5042744;28;20033;-79
2023/11/26 00:02:32;;;;;;;2.97;1.60;;;0.70;99.90;;;;;;5049504;28;20217;-77
2023/11/26 00:05:17;;;;;;;2.35;1.50;;;0.60;99.90;;;;;;5056267;28;21534;-78
2023/11/26 00:07:43;;;;;;;4.93;1.77;;;0.60;99.90;;;;;;5046173;28;20045;-77
2023/11/26 00:10:09;;;;;;;6.28;1.73;;;0.60;99.90;;;;;;5046074;28;20648;-77
2023/11/26 00:12:35;;;;;;;4.15;2.05;;;0.60;99.90;;;;;;5046512;28;20037;-77
2023/11/26 00:15:01;;;;;;;3.63;1.60;;;0.70;99.90;;;;;;5038156;28;20045;-78
2023/11/26 00:17:27;;;;;;;2.97;2.05;;;0.60;99.90;;;;;;5049993;28;20479;-77
2023/11/26 00:19:54;;;;;;;1.58;1.48;;;0.60;99.90;;;;;;5039532;28;20067;-78
2023/11/26 00:22:20;;;;;;;1.45;1.35;;;0.60;99.90;;;;;;5041216;28;20033;-77
2023/11/26 00:24:45;;;;;;;3.25;1.50;;;0.60;99.90;;;;;;5046620;28;20025;-77
2023/11/26 00:27:11;;;;;;;2.47;1.80;;;0.60;99.90;;;;;;5047926;28;20475;-77
2023/11/26 00:29:43;;;;;;;2.47;1.50;;;0.60;99.90;;;;;;5043450;28;20060;-78
2023/11/26 00:32:09;;;;;;;1.77;1.30;;;0.60;99.90;;;;;;5044629;28;20029;-77
2023/11/26 00:34:35;;;;;;;4.75;1.50;;;0.60;99.90;;;;;;5047191;28;20384;-77
2023/11/26 00:37:07;;;;;;;3.92;1.52;;;0.60;99.90;;;;;;5046621;28;20504;-76
2023/11/26 00:39:36;;;;;;;3.60;1.45;;;0.60;99.90;;;;;;5046609;28;20025;-76
2023/11/26 00:42:02;;;;;;;1.85;1.20;;;0.60;99.90;;;;;;5049160;28;20120;-76
2023/11/26 00:44:31;;;;;;;2.63;1.33;;;0.60;99.90;;;;;;5049154;28;20021;-77
2023/11/26 00:46:57;;;;;;;2.45;1.10;;;0.50;99.90;;;;;;5043895;28;20032;-77
2023/11/26 00:49:41;;;;;;;1.58;0.88;;;0.60;99.90;;;;;;5043362;28;20036;-76
2023/11/26 00:52:07;;;;;;;2.15;1.20;;;0.60;99.90;;;;;;5046618;28;20112;-77
2023/11/26 00:54:33;;;;;;;3.00;1.17;;;0.60;99.90;;;;;;5047091;28;20202;-76
2023/11/26 00:56:58;;;;;;;1.90;1.13;;;0.60;99.90;;;;;;5042693;28;20034;-76
2023/11/26 00:59:24;;;;;;;1.63;1.00;;;0.60;99.90;;;;;;5043459;28;20462;-76
2023/11/26 01:01:50;;;;;;;2.28;1.15;;;0.60;99.90;;;;;;5049260;28;20025;-76
2023/11/26 01:04:16;;;;;;;1.75;0.85;;;0.60;99.90;;;;;;5044849;28;20026;-76
2023/11/26 01:06:41;;;;;;;1.58;1.00;;;0.60;99.90;;;;;;5043830;28;20124;-76
2023/11/26 01:09:07;;;;;;;2.60;0.80;;;0.60;99.90;;;;;;5045803;28;20041;-76
2023/11/26 01:11:33;;;;;;;1.38;0.88;;;0.60;99.90;;;;;;5037559;28;20041;-76
2023/11/26 01:13:59;;;;;;;4.38;1.20;;;0.60;99.90;;;;;;5025145;28;20071;-76
2023/11/26 01:16:24;;;;;;;0.82;0.80;;;0.70;99.90;;;;;;5041479;28;20033;-76
2023/11/26 01:18:56;;;;;;;3.13;1.20;;;0.60;99.90;;;;;;5043829;28;20192;-76
2023/11/26 01:21:25;;;;;;;2.72;1.02;;;0.70;99.90;;;;;;5029467;28;20057;-76
2023/11/26 01:23:53;;;;;;;1.27;1.17;;;0.60;99.90;;;;;;5042059;28;20082;-76
2023/11/26 01:26:19;;;;;;;1.48;0.98;;;0.60;99.90;;;;;;5042547;28;20033;-76
2023/11/26 01:28:45;;;;;;;1.10;1.00;;;0.60;99.90;;;;;;5042588;28;20045;-76
2023/11/26 01:31:11;;;;;;;2.88;1.20;;;0.60;99.90;;;;;;5049791;28;20743;-76
2023/11/26 01:33:37;;;;;;;1.23;0.93;;;0.60;99.90;;;;;;5044385;28;20116;-76
2023/11/26 01:36:09;;;;;;;1.17;0.98;;;0.60;99.90;;;;;;5047170;28;20522;-77
2023/11/26 01:38:35;;;;;;;2.50;1.10;;;0.60;99.90;;;;;;5040282;28;20514;-76
2023/11/26 01:41:01;;;;;;;1.02;0.77;;;0.60;99.90;;;;;;5048006;28;20029;-76
2023/11/26 01:43:27;;;;;;;1.58;0.90;;;0.60;99.90;;;;;;5032398;28;20048;-76
2023/11/26 01:46:07;;;;;;;1.85;1.45;;;0.60;99.90;;;;;;5044234;28;20108;-77
2023/11/26 01:48:34;;;;;;;1.00;0.80;;;0.60;99.90;;;;;;5043574;28;20027;-76
2023/11/26 01:51:02;;;;;;;2.10;0.90;;;0.60;99.90;;;;;;5040468;28;20061;-76
2023/11/26 01:53:30;;;;;;;1.23;0.80;;;0.60;99.90;;;;;;5042844;28;20020;-76
2023/11/26 01:55:56;;;;;;;0.70;0.70;;;0.60;99.90;;;;;;5045221;28;20461;-76
2023/11/26 01:58:22;;;;;;;1.95;0.80;;;0.50;99.90;;;;;;5037583;28;20044;-76
2023/11/26 02:00:50;;;;;;;0.70;0.70;;;0.50;99.90;;;;;;5026995;28;20083;-76
2023/11/26 02:03:16;;;;;;;3.10;1.48;;;0.50;99.90;;;;;;5039658;28;20560;-76
2023/11/26 02:05:45;;;;;;;1.25;0.68;;;0.50;99.90;;;;;;5048734;28;20052;-76
2023/11/26 02:08:13;;;;;;;1.95;0.80;;;0.50;99.90;;;;;;5042702;28;20037;-77
2023/11/26 02:10:39;;;;;;;0.95;0.60;;;0.50;99.90;;;;;;5045734;28;20040;-77
2023/11/26 02:13:06;;;;;;;1.00;0.52;;;0.50;99.90;;;;;;5039493;28;20025;-76
2023/11/26 02:15:34;;;;;;;1.13;0.82;;;0.50;99.90;;;;;;5040071;28;20094;-76
2023/11/26 02:18:00;;;;;;;0.88;0.50;;;0.50;99.90;;;;;;5042827;28;20119;-76
2023/11/26 02:20:27;;;;;;;3.28;0.73;;;0.40;99.90;;;;;;5039592;28;20029;-77
2023/11/26 02:22:53;;;;;;;2.90;0.50;;;0.40;99.90;;;;;;5041296;28;20616;-77
2023/11/26 02:25:21;;;;;;;0.63;0.60;;;0.50;99.90;;;;;;5046843;28;20371;-76
2023/11/26 02:27:47;;;;;;;0.80;0.43;;;0.40;99.90;;;;;;5040660;28;20030;-76
2023/11/26 02:30:13;;;;;;;1.20;0.30;;;0.40;99.90;;;;;;5045699;28;20758;-77
2023/11/26 02:32:39;;;;;;;0.43;0.40;;;0.40;99.90;;;;;;5043734;28;20022;-77
2023/11/26 02:35:06;;;;;;;0.95;0.52;;;0.40;99.90;;;;;;5041418;28;20037;-76
2023/11/26 02:37:32;;;;;;;1.05;0.30;;;0.40;99.90;;;;;;5046512;28;20102;-77
2023/11/26 02:39:58;;;;;;;1.30;0.47;;;0.40;99.90;;;;;;5014781;28;20071;-76
2023/11/26 02:42:24;;;;;;;0.30;0.30;;;0.40;99.90;;;;;;5025959;28;20025;-76
2023/11/26 02:44:50;;;;;;;1.83;0.52;;;0.40;99.90;;;;;;5041858;28;20029;-76
2023/11/26 02:47:16;;;;;;;0.45;0.30;;;0.40;99.90;;;;;;5045557;28;20033;-76
2023/11/26 02:49:42;;;;;;;0.60;0.22;;;0.40;99.90;;;;;;5026071;28;20120;-76
2023/11/26 02:52:09;;;;;;;1.75;0.65;;;0.40;99.90;;;;;;5045508;28;20491;-77
2023/11/26 02:54:35;;;;;;;2.38;0.40;;;0.40;99.90;;;;;;5041313;28;20047;-76
2023/11/26 02:57:00;;;;;;;1.55;0.47;;;0.40;99.90;;;;;;5044872;28;20123;-76
2023/11/26 02:59:26;;;;;;;0.30;0.30;;;0.40;99.90;;;;;;5038604;28;20025;-76
2023/11/26 03:01:57;;;;;;;1.30;0.25;;;0.40;99.90;;;;;;5049908;28;20072;-76
2023/11/26 03:04:23;;;;;;;0.55;0.40;;;0.40;99.90;;;;;;5036667;28;20025;-77
2023/11/26 03:06:51;;;;;;;0.70;0.47;;;0.40;99.90;;;;;;5043558;28;20063;-76
2023/11/26 03:14:48;;;;;;;0.75;0.30;;;0.40;99.90;;;;;;5038223;28;20167;-76
2023/11/26 03:17:14;;;;;;;0.40;0.20;;;0.40;99.90;;;;;;5037136;28;20135;-77
2023/11/26 03:19:41;;;;;;;0.52;0.30;;;0.40;99.90;;;;;;5038330;28;20123;-76
2023/11/26 03:22:09;;;;;;;0.40;0.32;;;0.40;99.90;;;;;;5045200;28;20075;-76
2023/11/26 03:24:36;;;;;;;0.52;0.32;;;0.40;99.90;;;;;;5050790;28;20095;-76
2023/11/26 03:27:02;;;;;;;0.70;0.40;;;0.40;99.90;;;;;;5047342;28;20044;-76
2023/11/26 03:29:28;;;;;;;4.70;0.90;;;0.40;99.90;;;;;;5049787;28;20091;-76
2023/11/26 03:31:54;;;;;;;1.83;0.60;;;0.40;99.90;;;;;;5045328;28;20411;-76
2023/11/26 03:34:23;;;;;;;0.60;0.55;;;0.30;99.90;;;;;;5049490;28;20029;-76
2023/11/26 03:36:49;;;;;;;1.60;0.70;;;0.30;99.90;;;;;;5048062;28;20037;-76
2023/11/26 03:39:18;;;;;;;1.15;0.60;;;0.40;99.90;;;;;;5045326;28;20449;-76
2023/11/26 03:41:44;;;;;;;1.52;0.55;;;0.30;99.90;;;;;;5053405;28;20033;-76
2023/11/26 03:44:10;;;;;;;0.52;0.50;;;0.30;99.90;;;;;;5041458;28;20508;-76
2023/11/26 03:46:38;;;;;;;1.80;0.50;;;0.40;99.90;;;;;;5046282;28;20696;-76
2023/11/26 03:49:04;;;;;;;0.93;0.50;;;0.40;99.90;;;;;;5044072;28;20045;-77
2023/11/26 03:51:30;;;;;;;0.68;0.50;;;0.40;99.90;;;;;;5049669;28;20036;-76
2023/11/26 03:53:56;;;;;;;0.85;0.45;;;0.40;99.90;;;;;;5045041;28;20029;-76
2023/11/26 03:56:22;;;;;;;1.80;0.55;;;0.30;99.90;;;;;;5048062;28;20530;-76
2023/11/26 03:58:48;;;;;;;0.82;0.40;;;0.30;99.90;;;;;;5046800;28;20040;-76
2023/11/26 04:01:13;;;;;;;0.82;0.50;;;0.30;99.90;;;;;;5044738;28;20033;-77
2023/11/26 04:03:40;;;;;;;0.65;0.50;;;0.30;99.90;;;;;;5041539;28;20044;-77
2023/11/26 04:06:06;;;;;;;1.27;0.63;;;0.30;99.90;;;;;;5052214;28;20044;-76
2023/11/26 04:08:31;;;;;;;2.05;0.52;;;0.30;99.90;;;;;;5046662;28;20376;-76
2023/11/26 04:10:57;;;;;;;0.82;0.40;;;0.30;99.90;;;;;;5053762;28;20040;-77
2023/11/26 04:13:27;;;;;;;1.67;0.55;;;0.30;99.90;;;;;;5047274;28;20029;-76
2023/11/26 04:15:57;;;;;;;0.85;0.50;;;0.20;99.90;;;;;;5052358;28;20107;-76
2023/11/26 04:18:28;;;;;;;1.33;0.40;;;0.20;99.90;;;;;;5024647;28;20060;-77
2023/11/26 04:20:54;;;;;;;0.60;0.47;;;0.20;99.90;;;;;;5047694;28;20029;-76
2023/11/26 04:23:20;;;;;;;0.47;0.35;;;0.20;99.90;;;;;;5040218;28;20021;-77
2023/11/26 04:25:46;;;;;;;0.80;0.55;;;0.10;99.90;;;;;;5047752;28;20025;-76
2023/11/26 04:28:12;;;;;;;4.05;0.60;;;0.10;99.90;;;;;;5049129;28;20024;-76
2023/11/26 04:30:38;;;;;;;0.73;0.60;;;0.10;99.90;;;;;;5050144;28;20056;-76
2023/11/26 04:33:04;;;;;;;0.70;0.55;;;0.10;99.90;;;;;;5046829;28;20440;-76
2023/11/26 04:35:29;;;;;;;0.90;0.57;;;0.00;99.90;;;;;;5046052;28;20121;-77
2023/11/26 04:37:56;;;;;;;0.95;0.60;;;-0.10;99.90;;;;;;5045357;28;20031;-76
2023/11/26 04:40:22;;;;;;;0.50;0.50;;;-0.10;99.90;;;;;;5046732;28;20041;-77
2023/11/26 04:42:48;;;;;;;0.77;0.55;;;-0.10;99.90;;;;;;5038949;28;20029;-76
2023/11/26 04:45:13;;;;;;;0.95;0.70;;;-0.20;99.90;;;;;;5040950;28;20044;-76
2023/11/26 04:47:40;;;;;;;1.83;0.40;;;-0.20;99.90;;;;;;5052586;28;20025;-77
2023/11/26 04:50:06;;;;;;;1.00;0.70;;;-0.20;99.90;;;;;;5043801;28;20033;-76
2023/11/26 04:52:32;;;;;;;1.00;0.57;;;-0.30;99.90;;;;;;5051990;28;20120;-76
2023/11/26 04:54:58;;;;;;;2.45;0.52;;;-0.30;99.90;;;;;;5049029;28;20044;-77
2023/11/26 04:57:24;;;;;;;0.93;0.52;;;-0.30;99.90;;;;;;5044726;28;20033;-76
2023/11/26 04:59:50;;;;;;;0.75;0.47;;;-0.30;99.90;;;;;;5041278;28;20110;-77
2023/11/26 05:02:18;;;;;;;2.97;1.00;;;-0.40;99.90;;;;;;5048309;28;20059;-77
2023/11/26 05:04:44;;;;;;;0.70;0.50;;;-0.40;99.90;;;;;;5042064;28;20120;-76
2023/11/26 05:07:10;;;;;;;0.70;0.60;;;-0.40;99.90;;;;;;5040330;28;20044;-77
2023/11/26 05:09:36;;;;;;;3.10;0.80;;;-0.50;99.90;;;;;;5047351;28;20021;-76
2023/11/26 05:12:02;;;;;;;0.85;0.75;;;-0.50;99.90;;;;;;5046979;28;20680;-76
2023/11/26 05:14:28;;;;;;;5.68;1.02;;;-0.50;99.90;;;;;;5041912;28;20166;-77
2023/11/26 05:16:54;;;;;;;2.50;0.80;;;-0.50;99.90;;;;;;5044579;28;20048;-76
2023/11/26 05:19:21;;;;;;;3.72;1.10;;;-0.60;99.90;;;;;;5045946;28;20032;-76
2023/11/26 05:21:46;;;;;;;1.50;0.85;;;-0.50;99.90;;;;;;5048660;28;20454;-76
2023/11/26 05:24:13;;;;;;;1.20;1.00;;;-0.60;99.90;;;;;;5046712;28;20029;-76
2023/11/26 05:26:40;;;;;;;1.65;1.08;;;-0.60;99.90;;;;;;5050921;28;20041;-76
2023/11/26 05:29:06;;;;;;;1.60;1.10;;;-0.60;99.90;;;;;;5045082;28;20453;-76
2023/11/26 05:31:34;;;;;;;1.70;1.10;;;-0.70;99.90;;;;;;5050740;28;20103;-76
2023/11/26 05:34:00;;;;;;;1.80;1.00;;;-0.70;99.90;;;;;;5049374;28;20111;-75
2023/11/26 05:36:26;;;;;;;1.27;1.00;;;-0.70;99.90;;;;;;5046439;28;20495;-76
2023/11/26 05:38:52;;;;;;;1.63;1.17;;;-0.70;99.90;;;;;;5041287;28;20140;-76
2023/11/26 05:41:18;;;;;;;1.25;1.02;;;-0.70;99.90;;;;;;5052228;28;20033;-76
2023/11/26 05:43:44;;;;;;;2.22;1.38;;;-0.70;99.90;;;;;;5041968;28;20078;-76
2023/11/26 05:46:10;;;;;;;1.65;0.95;;;-0.70;99.90;;;;;;5042784;28;20560;-76
2023/11/26 05:48:35;;;;;;;2.25;1.25;;;-0.60;99.90;;;;;;5047732;28;20529;-76
2023/11/26 05:51:02;;;;;;;5.50;1.58;;;-0.60;99.90;;;;;;5043070;28;20033;-76
2023/11/26 05:53:27;;;;;;;3.90;1.63;;;-0.60;99.90;;;;;;5046151;28;20037;-76
2023/11/26 05:55:53;;;;;;;1.05;0.80;;;-0.70;99.90;;;;;;5048336;28;20806;-76
2023/11/26 05:58:20;;;;;;;1.50;0.98;;;-0.60;99.90;;;;;;5036266;28;20037;-76
2023/11/26 06:00:46;;;;;;;1.17;1.08;;;-0.60;99.90;;;;;;5043496;28;20037;-76
2023/11/26 06:03:11;;;;;;;3.08;1.13;;;-0.70;99.90;;;;;;5048447;28;20036;-76
2023/11/26 06:05:37;;;;;;;1.40;1.15;;;-0.60;99.90;;;;;;5049340;28;20505;-76
2023/11/26 06:08:04;;;;;;;1.40;1.30;;;-0.60;99.90;;;;;;5046798;28;20139;-76
2023/11/26 06:10:31;;;;;;;1.52;1.25;;;-0.60;99.90;;;;;;5050050;28;20029;-76
2023/11/26 06:12:56;;;;;;;1.95;1.17;;;-0.60;99.90;;;;;;5045796;28;20026;-76
2023/11/26 06:15:22;;;;;;;2.17;1.20;;;-0.60;99.90;;;;;;5043267;28;20031;-76
2023/11/26 06:17:49;;;;;;;2.55;1.17;;;-0.60;99.90;;;;;;5046427;28;20026;-76
2023/11/26 06:20:15;;;;;;;3.25;1.23;;;-0.60;99.90;;;;;;5046572;28;20029;-76
2023/11/26 06:22:40;;;;;;;4.05;1.63;;;-0.50;99.90;;;;;;5042711;28;20024;-76
2023/11/26 06:25:09;;;;;;;2.17;1.30;;;-0.50;99.90;;;;;;5041889;28;20030;-76
2023/11/26 06:27:35;;;;;;;2.75;1.60;;;-0.50;99.90;;;;;;5044433;28;21430;-76
2023/11/26 06:30:01;;;;;;;2.10;1.77;;;-0.40;99.90;;;;;;5049252;28;20456;-76
2023/11/26 06:32:26;;;;;;;1.63;1.40;;;-0.40;99.90;;;;;;5051555;28;20032;-76
2023/11/26 06:34:52;;;;;;;2.42;1.42;;;-0.40;99.90;;;;;;5041371;28;20041;-76
2023/11/26 06:37:18;;;;;;;2.95;1.90;;;-0.40;99.90;;;;;;5037936;28;20087;-76
2023/11/26 06:39:43;;;;;;;3.17;1.40;;;-0.40;99.90;;;;;;5040180;28;20045;-76
2023/11/26 06:42:10;;;;;;;3.95;1.90;;;-0.40;99.90;;;;;;5047464;28;20018;-76
2023/11/26 06:44:35;;;;;;;2.00;1.80;;;-0.50;99.90;;;;;;5046850;28;20029;-76
2023/11/26 06:47:01;;;;;;;2.42;1.88;;;-0.40;99.90;;;;;;5039799;28;20464;-76
2023/11/26 06:49:27;;;;;;;2.38;1.98;;;-0.40;99.90;;;;;;5043356;28;20025;-77
2023/11/26 06:51:55;;;;;;;6.90;2.30;;;-0.40;99.90;;;;;;5044243;28;20112;-76
2023/11/26 06:54:22;;;;;;;4.20;2.00;;;-0.40;99.90;;;;;;5044792;28;20038;-76
2023/11/26 06:56:48;;;;;;;3.45;2.15;;;-0.40;99.90;;;;;;5046606;28;20422;-76
2023/11/26 06:59:14;;;;;;;2.05;1.83;;;-0.40;99.90;;;;;;5046274;28;20494;-76
2023/11/26 07:01:39;;;;;;;5.63;2.13;;;-0.40;99.90;;;;;;5045238;28;20041;-76
2023/11/26 07:04:05;;;;;;;3.22;2.25;;;-0.40;99.90;;;;;;5064491;28;20113;-76
2023/11/26 07:06:31;;;;;;;2.30;1.80;;;-0.50;99.90;;;;;;5052968;28;20033;-76
2023/11/26 07:08:57;;;;;;;2.78;1.90;;;-0.50;99.90;;;;;;5042325;28;20041;-76
2023/11/26 07:11:24;;;;;;;3.75;1.73;;;-0.50;99.90;;;;;;5049512;28;20044;-76
2023/11/26 07:13:51;;;;;;;2.00;1.80;;;-0.60;99.90;;;;;;5054554;28;20402;-76
2023/11/26 07:16:18;;;;;;;7.40;2.10;;;-0.60;99.90;;;;;;5052358;28;20040;-76
2023/11/26 07:18:45;;;;;;;2.47;1.90;;;-0.60;99.90;;;;;;5047251;28;20044;-76
2023/11/26 07:21:11;;;;;;;3.25;1.83;;;-0.60;99.90;;;;;;5056038;28;20021;-77
2023/11/26 07:23:36;;;;;;;2.55;1.60;;;-0.60;99.90;;;;;;5057601;28;20032;-77
2023/11/26 07:26:10;;;;;;;2.75;2.30;;;-0.70;99.90;;;;;;5051148;28;20100;-78
2023/11/26 07:28:36;;;;;;;2.40;2.00;;;-0.70;99.90;;;;;;5046669;28;20162;-77
2023/11/26 07:31:02;;;;;;;3.40;2.35;;;-0.70;99.90;;;;;;5056478;28;20056;-77
2023/11/26 07:33:28;;;;;;;3.08;2.40;;;-0.70;99.90;;;;;;5049532;28;20040;-77
2023/11/26 07:35:54;;;;;;;2.70;2.03;;;-0.70;99.90;;;;;;5047606;28;20041;-78
2023/11/26 07:38:19;;;;;;;3.70;1.95;;;-0.70;99.90;;;;;;5049316;28;20399;-77
2023/11/26 07:40:45;;;;;;;3.70;2.15;;;-0.70;99.90;;;;;;5057594;28;20052;-77
2023/11/26 07:43:12;;;;;;;5.13;2.00;;;-0.70;99.90;;;;;;5052398;28;20021;-77
2023/11/26 07:45:38;;;;;;;3.63;1.90;;;-0.70;99.90;;;;;;5055863;28;20645;-78
2023/11/26 07:48:04;;;;;;;5.03;2.08;;;-0.80;99.90;;;;;;5048551;28;20040;-77
2023/11/26 07:50:30;;;;;;;4.75;2.00;;;-0.80;99.90;;;;;;5054243;28;20538;-78
2023/11/26 07:52:56;;;;;;;1.95;1.70;;;-0.80;99.90;;;;;;5061069;28;20067;-77
2023/11/26 07:55:22;;;;;;;2.67;2.10;;;-0.80;99.90;;;;;;5061381;28;20029;-78
2023/11/26 07:57:48;;;;;;;2.38;1.75;;;-0.80;99.90;;;;;;5060470;28;20040;-78
2023/11/26 08:00:17;;;;;;;6.13;2.63;;;-0.70;99.90;;;;;;5052483;28;20029;-76
2023/11/26 08:02:44;;;;;;;3.33;2.08;;;-0.70;99.90;;;;;;5049758;28;20029;-77
2023/11/26 08:05:13;;;;;;;2.35;1.73;;;-0.60;99.90;;;;;;5043978;28;20029;-76
2023/11/26 08:07:39;;;;;;;4.03;2.00;;;-0.60;99.90;;;;;;5047073;28;20409;-77
2023/11/26 08:10:09;;;;;;;4.68;1.65;;;-0.60;99.90;;;;;;5050593;28;20107;-78
2023/11/26 08:12:38;;;;;;;2.25;1.70;;;-0.60;99.90;;;;;;5057773;28;20048;-78
2023/11/26 08:15:12;;;;;;;3.30;2.33;;;-0.50;99.90;;;;;;5043516;28;20473;-78
2023/11/26 08:17:48;;;;;;;6.88;2.72;;;-0.40;99.90;;;;;;5053436;28;20083;-78
2023/11/26 08:20:17;;;;;;;2.67;1.70;;;-0.40;99.90;;;;;;5049531;28;20017;-77
2023/11/26 08:22:46;;;;;;;4.78;2.08;;;-0.40;99.90;;;;;;5038603;28;20092;-77
2023/11/26 08:25:17;;;;;;;2.63;2.10;;;-0.30;99.90;;;;;;5029433;28;20064;-77
2023/11/26 08:27:45;;;;;;;2.58;1.77;;;-0.30;99.90;;;;;;5047344;28;20064;-78
2023/11/26 08:30:30;;;;;;;4.05;2.10;;;-0.30;99.90;;;;;;5048180;28;20028;-77
2023/11/26 08:33:00;;;;;;;3.75;2.05;;;-0.20;99.90;;;;;;5048495;28;20167;-79
2023/11/26 08:35:29;;;;;;;3.72;1.98;;;-0.20;99.90;;;;;;5054424;28;20025;-77
2023/11/26 08:38:00;;;;;;;2.17;1.80;;;-0.10;99.90;;;;;;5049921;28;20044;-78
2023/11/26 08:40:26;;;;;;;4.95;2.15;;;-0.10;99.90;;;;;;5048015;28;20033;-77
2023/11/26 08:42:54;;;;;;;4.85;2.47;;;-0.10;99.90;;;;;;5042579;28;20136;-78
2023/11/26 08:45:23;;;;;;;5.38;2.40;;;-0.10;99.90;;;;;;5050340;28;20047;-78
2023/11/26 08:47:51;;;;;;;3.35;2.20;;;0.00;99.90;;;;;;5048317;28;20047;-77
2023/11/26 08:50:16;;;;;;;3.15;2.03;;;0.10;99.90;;;;;;5050408;28;20078;-78
2023/11/26 08:52:42;;;;;;;2.92;2.10;;;0.10;99.90;;;;;;5049347;28;20104;-78
2023/11/26 08:55:09;;;;;;;3.00;1.75;;;0.10;99.90;;;;;;5047971;28;20021;-78
2023/11/26 08:57:39;;;;;;;5.10;2.10;;;0.10;99.90;;;;;;5052275;28;20024;-78
2023/11/26 09:00:09;;;;;;;5.25;2.65;;;0.10;99.90;;;;;;5043272;28;20391;-78
2023/11/26 09:02:40;;;;;;;6.10;3.13;;;0.10;99.90;;;;;;5042333;28;20092;-77
2023/11/26 09:05:10;;;;;;;7.90;2.78;;;0.10;99.90;;;;;;5045826;28;20399;-77
2023/11/26 09:07:40;;;;;;;5.32;2.63;;;0.20;99.90;;;;;;5046263;28;20025;-77
2023/11/26 09:10:07;;;;;;;7.25;3.65;;;0.20;99.90;;;;;;5041043;28;20025;-78
2023/11/26 09:12:32;;;;;;;6.00;3.60;;;0.20;99.90;;;;;;5047474;28;20046;-78
2023/11/26 09:14:59;;;;;;;6.90;3.33;;;0.20;99.90;;;;;;5040014;28;20487;-77
2023/11/26 09:17:25;;;;;;;6.38;3.17;;;0.30;99.90;;;;;;5050045;28;20040;-77
2023/11/26 09:19:50;;;;;;;6.03;3.42;;;0.30;99.90;;;;;;5047048;28;20036;-78
2023/11/26 09:22:16;;;;;;;5.18;3.10;;;0.30;99.90;;;;;;5033287;28;20029;-77
2023/11/26 09:24:42;;;;;;;4.97;2.70;;;0.30;99.90;;;;;;5045232;28;20037;-78
2023/11/26 09:27:08;;;;;;;6.22;3.67;;;0.30;99.90;;;;;;5045782;28;20044;-78
2023/11/26 09:29:33;;;;;;;7.50;3.47;;;0.30;99.90;;;;;;5046839;28;20048;-77
2023/11/26 09:31:59;;;;;;;5.97;3.22;;;0.30;99.90;;;;;;5050405;28;20029;-78
2023/11/26 09:34:25;;;;;;;4.38;3.40;;;0.30;99.90;;;;;;5050752;28;20337;-78
2023/11/26 09:36:52;;;;;;;11.23;3.90;;;0.30;99.90;;;;;;5048741;28;20487;-79
2023/11/26 09:39:19;;;;;;;7.22;3.63;;;0.40;99.90;;;;;;5045346;28;20041;-78
2023/11/26 09:41:45;;;;;;;4.78;3.72;;;0.40;99.90;;;;;;5050005;28;20033;-78
2023/11/26 09:44:10;;;;;;;10.70;4.03;;;0.40;99.90;;;;;;5048413;28;20539;-78
2023/11/26 09:46:36;;;;;;;7.38;3.70;;;0.40;99.90;;;;;;5048858;28;20053;-78
2023/11/26 09:49:03;;;;;;;7.13;4.13;;;0.40;99.90;;;;;;5045682;28;20060;-77
2023/11/26 09:51:32;;;;;;;7.82;4.57;;;0.40;99.90;;;;;;5046714;28;20102;-76
2023/11/26 09:53:58;;;;;;;5.97;4.13;;;0.50;99.90;;;;;;5040209;28;20116;-77
2023/11/26 09:56:24;;;;;;;7.35;3.92;;;0.50;99.90;;;;;;5046802;28;20029;-77
2023/11/26 09:58:50;;;;;;;9.95;4.13;;;0.50;99.90;;;;;;5040305;28;20025;-77
2023/11/26 10:01:16;;;;;;;10.55;4.25;;;0.60;99.90;;;;;;5043862;28;20115;-77
2023/11/26 10:04:15;;;;;;;9.25;4.75;;;0.60;99.90;;;;;;5037343;28;20060;-77
2023/11/26 10:06:41;;;;;;;9.20;4.75;;;0.70;99.90;;;;;;5018965;28;20045;-78
2023/11/26 10:09:17;;;;;;;7.78;4.45;;;0.70;99.90;;;;;;5034704;28;20078;-78
2023/11/26 10:11:45;;;;;;;8.18;4.10;;;0.70;99.90;;;;;;5039163;28;20316;-77
2023/11/26 10:14:14;;;;;;;8.40;3.70;;;0.80;99.90;;;;;;5040943;28;20051;-77
2023/11/26 10:16:41;;;;;;;8.05;3.85;;;0.80;99.90;;;;;;5040636;28;20043;-76
2023/11/26 10:19:07;;;;;;;8.13;4.63;;;0.70;99.90;;;;;;5036691;28;20024;-76
2023/11/26 10:21:33;;;;;;;7.05;4.10;;;0.70;99.90;;;;;;5042447;28;20036;-76
2023/11/26 10:24:00;;;;;;;9.93;4.63;;;0.70;99.90;;;;;;5025597;28;20029;-77
2023/11/26 10:26:26;;;;;;;9.23;4.22;;;0.70;99.90;;;;;;5035242;28;20024;-77
2023/11/26 10:29:02;;;;;;;12.10;5.03;;;0.70;99.90;;;;;;5037180;28;20614;-77
2023/11/26 10:31:28;;;;;;;6.55;3.58;;;0.70;99.90;;;;;;5044502;28;20029;-77
2023/11/26 10:34:14;;;;;;;5.40;3.55;;;0.60;99.90;;;;;;5046115;28;20048;-77
2023/11/26 10:36:40;;;;;;;7.05;4.13;;;0.60;99.90;;;;;;5042763;28;20588;-77
2023/11/26 10:39:09;;;;;;;8.60;4.32;;;0.60;99.90;;;;;;5040948;28;20021;-77
2023/11/26 10:41:36;;;;;;;8.65;4.38;;;0.60;99.90;;;;;;5052644;28;20017;-78
2023/11/26 10:44:04;;;;;;;10.38;5.15;;;0.60;99.90;;;;;;5036460;28;20064;-78
2023/11/26 10:46:33;;;;;;;8.27;4.82;;;0.60;99.90;;;;;;5048255;28;20048;-77
2023/11/26 10:49:11;;;;;;;9.95;4.97;;;0.60;99.90;;;;;;5045040;28;20111;-78
2023/11/26 10:51:41;;;;;;;8.48;4.75;;;0.70;99.90;;;;;;5051665;28;20037;-79
2023/11/26 10:54:14;;;;;;;8.05;4.68;;;0.70;99.90;;;;;;5051654;28;20500;-77
2023/11/26 10:56:41;;;;;;;7.85;5.05;;;0.70;99.90;;;;;;5051009;28;20040;-78
2023/11/26 10:59:16;;;;;;;8.25;4.60;;;0.60;99.90;;;;;;5046106;28;20057;-78
2023/11/26 11:01:43;;;;;;;7.72;4.50;;;0.60;99.90;;;;;;5053068;28;20051;-79
2023/11/26 11:04:14;;;;;;;7.78;4.25;;;0.70;99.90;;;;;;5046981;28;20105;-77
2023/11/26 11:06:41;;;;;;;7.10;4.85;;;0.70;99.90;;;;;;5049676;28;20033;-78
2023/11/26 11:09:13;;;;;;;7.97;4.50;;;0.70;99.90;;;;;;5046593;28;20033;-79
2023/11/26 11:12:03;;;;;;;6.25;4.40;;;0.60;99.90;;;;;;5044311;28;20033;-77
2023/11/26 11:14:30;;;;;;;8.65;4.45;;;0.60;99.90;;;;;;5040124;28;20110;-78
2023/11/26 11:16:56;;;;;;;7.38;4.07;;;0.60;99.90;;;;;;5042804;28;20041;-80
2023/11/26 11:19:52;;;;;;;8.35;4.63;;;0.60;99.90;;;;;;5044746;28;20828;-78
2023/11/26 11:22:18;;;;;;;8.57;4.25;;;0.70;99.90;;;;;;5045994;28;20013;-80
2023/11/26 11:24:48;;;;;;;6.82;4.65;;;0.70;99.90;;;;;;5047635;28;20397;-79
2023/11/26 11:27:14;;;;;;;5.95;3.78;;;0.70;99.90;;;;;;5053143;28;20398;-77
2023/11/26 11:29:39;;;;;;;8.50;4.35;;;0.70;99.90;;;;;;5046769;28;20033;-77
2023/11/26 11:32:05;;;;;;;8.45;4.07;;;0.70;99.90;;;;;;5049613;28;20056;-80
2023/11/26 11:34:32;;;;;;;7.72;4.07;;;0.70;99.90;;;;;;5049351;28;20094;-80
2023/11/26 11:37:00;;;;;;;7.80;4.43;;;0.70;99.90;;;;;;5051163;28;20344;-79
2023/11/26 11:39:49;;;;;;;6.13;4.10;;;0.70;99.90;;;;;;5043623;28;20411;-80
2023/11/26 11:42:21;;;;;;;6.82;3.90;;;0.70;99.90;;;;;;5049181;28;20021;-80
2023/11/26 11:44:47;;;;;;;10.63;4.20;;;0.70;99.90;;;;;;5048351;28;20026;-79
2023/11/26 11:47:43;;;;;;;6.65;4.05;;;0.80;99.90;;;;;;5050139;28;20119;-77
2023/11/26 11:50:09;;;;;;;8.57;4.28;;;0.80;99.90;;;;;;5044334;28;20029;-79
2023/11/26 11:52:37;;;;;;;8.68;4.07;;;0.90;99.90;;;;;;5046774;28;20034;-79
2023/11/26 11:55:33;;;;;;;9.63;4.07;;;0.90;99.90;;;;;;5048427;28;20483;-79
2023/11/26 11:58:11;;;;;;;9.00;4.20;;;0.90;99.90;;;;;;5046005;28;20078;-80
2023/11/26 12:00:37;;;;;;;6.50;3.80;;;0.80;99.90;;;;;;5058049;28;20083;-80
2023/11/26 12:03:05;;;;;;;4.05;3.17;;;0.80;99.90;;;;;;5048376;28;20036;-77
2023/11/26 12:05:31;;;;;;;7.07;3.58;;;0.80;99.90;;;;;;5055128;28;20032;-80
2023/11/26 12:07:57;;;;;;;6.47;4.03;;;0.90;99.90;;;;;;5050267;28;20043;-79
2023/11/26 12:10:35;;;;;;;8.15;3.85;;;0.80;99.90;;;;;;5059716;28;21741;-78
2023/11/26 12:13:08;;;;;;;5.65;3.85;;;0.90;99.90;;;;;;5048293;28;20037;-79
2023/11/26 12:15:38;;;;;;;6.22;4.40;;;0.80;99.90;;;;;;5055705;28;20033;-79
2023/11/26 12:18:05;;;;;;;6.78;3.90;;;0.90;99.90;;;;;;5059570;28;20033;-79
2023/11/26 12:20:31;;;;;;;6.03;3.92;;;0.90;99.90;;;;;;5053371;28;20025;-79
2023/11/26 12:22:56;;;;;;;7.22;4.40;;;0.80;99.90;;;;;;5057590;28;20143;-81
2023/11/26 12:25:22;;;;;;;7.13;4.10;;;0.80;99.90;;;;;;5045278;28;20490;-79
2023/11/26 12:28:01;;;;;;;6.78;3.83;;;0.80;99.90;;;;;;5052352;28;20029;-79
2023/11/26 12:30:27;;;;;;;8.40;4.28;;;0.80;99.90;;;;;;5054696;28;20106;-79
2023/11/26 12:32:53;;;;;;;11.45;5.03;;;0.90;99.90;;;;;;5051276;28;20041;-79
2023/11/26 12:35:20;;;;;;;7.43;4.10;;;0.90;99.90;;;;;;5048613;28;20030;-78
2023/11/26 12:37:46;;;;;;;6.50;3.95;;;0.90;99.90;;;;;;5054226;28;20084;-78
2023/11/26 12:40:13;;;;;;;7.82;4.35;;;1.00;99.90;;;;;;5050965;28;20043;-80
2023/11/26 12:42:41;;;;;;;6.53;4.30;;;1.00;99.90;;;;;;5057282;28;20094;-79
2023/11/26 12:45:10;;;;;;;8.02;4.65;;;0.90;99.90;;;;;;5038800;28;20029;-80
2023/11/26 12:47:51;;;;;;;7.10;4.13;;;0.90;99.90;;;;;;5051301;28;20037;-79
2023/11/26 12:50:17;;;;;;;4.97;3.53;;;1.00;99.90;;;;;;5046704;28;20071;-79
2023/11/26 12:52:44;;;;;;;5.45;4.05;;;0.90;99.90;;;;;;5050473;28;20017;-80
2023/11/26 12:55:10;;;;;;;6.70;4.07;;;1.00;99.90;;;;;;5051870;28;20032;-77
2023/11/26 12:57:39;;;;;;;7.00;3.80;;;1.00;99.90;;;;;;5049756;28;20029;-79
2023/11/26 13:00:13;;;;;;;6.82;3.80;;;1.00;99.90;;;;;;5052710;28;20147;-80